sensor_id;sensor_type;location;lat;lon;timestamp;pressure;altitude;pressure_sealevel;temperature;humidity
14295;BME280;7231;59.370;18.016;2023-03-14T00:02:32;96987.59;;;5.71;100.00
14295;BME280;7231;59.370;18.016;2023-03-14T00:05:00;96977.31;;;5.64;100.00
14295;BME280;7231;59.370;18.016;2023-03-14T00:07:29;96983.22;;;5.75;100.00
14295;BME280;7231;59.370;18.016;2023-03-14T00:10:01;96995.38;;;5.73;100.00
14295;BME280;7231;59.370;18.016;2023-03-14T00:12:31;96982.41;;;5.70;100.00
14295;BME280;7231;59.370;18.016;2023-03-14T00:15:00;96987.59;;;5.71;100.00
14295;BME280;7231;59.370;18.016;2023-03-14T00:17:30;96918.00;;;5.33;100.00
14295;BME280;7231;59.370;18.016;2023-03-14T00:19:58;97001.41;;;5.73;100.00
14295;BME280;7231;59.370;18.016;2023-03-14T00:22:31;96944.69;;;5.44;100.00
14295;BME280;7231;59.370;18.016;2023-03-14T00:24:59;96967.75;;;5.66;100.00
14295;BME280;7231;59.370;18.016;2023-03-14T00:27:27;96980.66;;;5.72;100.00
14295;BME280;7231;59.370;18.016;2023-03-14T00:29:55;96950.59;;;5.55;100.00
14295;BME280;7231;59.370;18.016;2023-03-14T00:32:24;96925.72;;;5.39;100.00
14295;BME280;7231;59.370;18.016;2023-03-14T00:34:52;96983.34;;;5.66;100.00
14295;BME280;7231;59.370;18.016;2023-03-14T00:37:20;96981.53;;;5.71;100.00
14295;BME280;7231;59.370;18.016;2023-03-14T00:39:50;96975.53;;;5.67;100.00
14295;BME280;7231;59.370;18.016;2023-03-14T00:42:18;96967.69;;;5.70;100.00
14295;BME280;7231;59.370;18.016;2023-03-14T00:44:46;96955.72;;;5.60;100.00
14295;BME280;7231;59.370;18.016;2023-03-14T00:47:14;96970.25;;;5.72;100.00
14295;BME280;7231;59.370;18.016;2023-03-14T00:49:43;96948.72;;;5.65;100.00
14295;BME280;7231;59.370;18.016;2023-03-14T00:52:12;96966.78;;;5.73;100.00
14295;BME280;7231;59.370;18.016;2023-03-14T00:54:39;96967.63;;;5.75;100.00
14295;BME280;7231;59.370;18.016;2023-03-14T00:57:07;96967.59;;;5.76;100.00
14295;BME280;7231;59.370;18.016;2023-03-14T00:59:36;96960.63;;;5.78;100.00
14295;BME280;7231;59.370;18.016;2023-03-14T01:02:03;96957.13;;;5.81;100.00
14295;BME280;7231;59.370;18.016;2023-03-14T01:04:31;96958.00;;;5.81;100.00
14295;BME280;7231;59.370;18.016;2023-03-14T01:07:01;96954.56;;;5.79;100.00
14295;BME280;7231;59.370;18.016;2023-03-14T01:09:29;96953.66;;;5.80;100.00
14295;BME280;7231;59.370;18.016;2023-03-14T01:11:56;96892.63;;;5.52;100.00
14295;BME280;7231;59.370;18.016;2023-03-14T01:14:25;96957.91;;;5.87;100.00
14295;BME280;7231;59.370;18.016;2023-03-14T01:16:52;96962.22;;;5.90;100.00
14295;BME280;7231;59.370;18.016;2023-03-14T01:19:20;96969.09;;;5.94;100.00
14295;BME280;7231;59.370;18.016;2023-03-14T01:21:48;96949.09;;;5.98;100.00
14295;BME280;7231;59.370;18.016;2023-03-14T01:24:18;96955.16;;;5.98;100.00
14295;BME280;7231;59.370;18.016;2023-03-14T01:26:45;96947.38;;;5.97;100.00
14295;BME280;7231;59.370;18.016;2023-03-14T01:29:14;96942.22;;;5.94;100.00
14295;BME280;7231;59.370;18.016;2023-03-14T01:31:41;96943.16;;;5.88;100.00
14295;BME280;7231;59.370;18.016;2023-03-14T01:34:09;96943.19;;;5.85;100.00
14295;BME280;7231;59.370;18.016;2023-03-14T01:36:38;96957.81;;;5.95;100.00
14295;BME280;7231;59.370;18.016;2023-03-14T01:39:06;96953.44;;;5.97;100.00
14295;BME280;7231;59.370;18.016;2023-03-14T01:41:36;96949.06;;;5.99;100.00
14295;BME280;7231;59.370;18.016;2023-03-14T01:44:04;96933.53;;;5.96;100.00
14295;BME280;7231;59.370;18.016;2023-03-14T01:46:36;96895.69;;;5.77;100.00
14295;BME280;7231;59.370;18.016;2023-03-14T01:49:19;96953.28;;;6.06;100.00
14295;BME280;7231;59.370;18.016;2023-03-14T01:51:52;96947.22;;;6.06;100.00
14295;BME280;7231;59.370;18.016;2023-03-14T01:54:26;96946.41;;;6.04;100.00
14295;BME280;7231;59.370;18.016;2023-03-14T01:57:03;96851.19;;;5.43;100.00
14295;BME280;7231;59.370;18.016;2023-03-14T01:59:33;96936.13;;;5.96;100.00
14295;BME280;7231;59.370;18.016;2023-03-14T02:02:04;96967.94;;;6.12;100.00
14295;BME280;7231;59.370;18.016;2023-03-14T02:04:35;96970.56;;;6.10;100.00
14295;BME280;7231;59.370;18.016;2023-03-14T02:07:06;96962.81;;;6.07;100.00
14295;BME280;7231;59.370;18.016;2023-03-14T02:09:36;96970.53;;;6.12;100.00
14295;BME280;7231;59.370;18.016;2023-03-14T02:12:07;96944.03;;;5.90;100.00
14295;BME280;7231;59.370;18.016;2023-03-14T02:14:36;96991.31;;;6.13;100.00
14295;BME280;7231;59.370;18.016;2023-03-14T02:17:05;96987.00;;;6.12;100.00
14295;BME280;7231;59.370;18.016;2023-03-14T02:19:45;96965.69;;;5.89;100.00
14295;BME280;7231;59.370;18.016;2023-03-14T02:22:17;96957.97;;;5.83;100.00
14295;BME280;7231;59.370;18.016;2023-03-14T02:24:53;97010.38;;;6.14;100.00
14295;BME280;7231;59.370;18.016;2023-03-14T02:27:27;96986.06;;;6.16;100.00
14295;BME280;7231;59.370;18.016;2023-03-14T02:29:58;96980.97;;;6.09;100.00
14295;BME280;7231;59.370;18.016;2023-03-14T02:32:30;96993.88;;;6.15;100.00
14295;BME280;7231;59.370;18.016;2023-03-14T02:35:01;96991.34;;;6.10;100.00
14295;BME280;7231;59.370;18.016;2023-03-14T02:37:34;96997.44;;;6.09;100.00
14295;BME280;7231;59.370;18.016;2023-03-14T02:40:04;96998.34;;;6.07;100.00
14295;BME280;7231;59.370;18.016;2023-03-14T02:42:33;97008.78;;;6.05;100.00
14295;BME280;7231;59.370;18.016;2023-03-14T02:45:32;97025.22;;;6.07;100.00
14295;BME280;7231;59.370;18.016;2023-03-14T02:48:05;97022.66;;;6.04;100.00
14295;BME280;7231;59.370;18.016;2023-03-14T02:50:34;97026.19;;;6.00;100.00
14295;BME280;7231;59.370;18.016;2023-03-14T02:53:02;97035.78;;;5.97;100.00
14295;BME280;7231;59.370;18.016;2023-03-14T02:55:30;96945.59;;;5.42;100.00
14295;BME280;7231;59.370;18.016;2023-03-14T02:57:59;97002.16;;;5.83;100.00
14295;BME280;7231;59.370;18.016;2023-03-14T03:00:27;97027.94;;;5.98;100.00
14295;BME280;7231;59.370;18.016;2023-03-14T03:02:57;97008.16;;;5.90;100.00
14295;BME280;7231;59.370;18.016;2023-03-14T03:05:25;97020.16;;;5.98;100.00
14295;BME280;7231;59.370;18.016;2023-03-14T03:07:53;97017.53;;;6.00;100.00
14295;BME280;7231;59.370;18.016;2023-03-14T03:10:20;97027.94;;;5.98;100.00
14295;BME280;7231;59.370;18.016;2023-03-14T03:12:48;97034.88;;;5.98;100.00
14295;BME280;7231;59.370;18.016;2023-03-14T03:15:19;97019.41;;;5.87;100.00
14295;BME280;7231;59.370;18.016;2023-03-14T03:17:47;96996.19;;;5.76;100.00
14295;BME280;7231;59.370;18.016;2023-03-14T03:20:15;97033.97;;;6.00;100.00
14295;BME280;7231;59.370;18.016;2023-03-14T03:22:43;97014.22;;;5.90;100.00
14295;BME280;7231;59.370;18.016;2023-03-14T03:25:11;96994.41;;;5.78;100.00
14295;BME280;7231;59.370;18.016;2023-03-14T03:27:39;97047.78;;;6.04;100.00
14295;BME280;7231;59.370;18.016;2023-03-14T03:30:08;97053.00;;;6.04;100.00
14295;BME280;7231;59.370;18.016;2023-03-14T03:32:37;97060.75;;;6.07;100.00
14295;BME280;7231;59.370;18.016;2023-03-14T03:35:06;97065.00;;;6.12;100.00
14295;BME280;7231;59.370;18.016;2023-03-14T03:37:35;97050.41;;;6.02;100.00
14295;BME280;7231;59.370;18.016;2023-03-14T03:40:03;97064.22;;;6.07;100.00
14295;BME280;7231;59.370;18.016;2023-03-14T03:42:33;96937.78;;;5.42;100.00
14295;BME280;7231;59.370;18.016;2023-03-14T03:45:01;97074.44;;;6.18;100.00
14295;BME280;7231;59.370;18.016;2023-03-14T03:47:29;97064.88;;;6.22;100.00
14295;BME280;7231;59.370;18.016;2023-03-14T03:49:59;97078.69;;;6.24;100.00
14295;BME280;7231;59.370;18.016;2023-03-14T03:52:27;97079.59;;;6.23;100.00
14295;BME280;7231;59.370;18.016;2023-03-14T03:54:55;97076.97;;;6.24;100.00
14295;BME280;7231;59.370;18.016;2023-03-14T03:57:23;97064.81;;;6.25;100.00
14295;BME280;7231;59.370;18.016;2023-03-14T03:59:50;97088.19;;;6.26;100.00
14295;BME280;7231;59.370;18.016;2023-03-14T04:02:18;97087.34;;;6.26;100.00
14295;BME280;7231;59.370;18.016;2023-03-14T04:04:46;97013.38;;;5.85;100.00
14295;BME280;7231;59.370;18.016;2023-03-14T04:07:16;97068.53;;;6.08;100.00
14295;BME280;7231;59.370;18.016;2023-03-14T04:09:44;97070.28;;;6.06;100.00
14295;BME280;7231;59.370;18.016;2023-03-14T04:12:12;97090.00;;;6.23;100.00
14295;BME280;7231;59.370;18.016;2023-03-14T04:14:40;97085.69;;;6.20;100.00
14295;BME280;7231;59.370;18.016;2023-03-14T04:17:08;97095.94;;;6.31;100.00
14295;BME280;7231;59.370;18.016;2023-03-14T04:19:36;97095.97;;;6.29;100.00
14295;BME280;7231;59.370;18.016;2023-03-14T04:22:04;97091.63;;;6.30;100.00
14295;BME280;7231;59.370;18.016;2023-03-14T04:24:33;97097.72;;;6.27;100.00
14295;BME280;7231;59.370;18.016;2023-03-14T04:27:01;97102.91;;;6.29;100.00
14295;BME280;7231;59.370;18.016;2023-03-14T04:29:29;97097.75;;;6.26;100.00
14295;BME280;7231;59.370;18.016;2023-03-14T04:31:57;97115.13;;;6.24;100.00
14295;BME280;7231;59.370;18.016;2023-03-14T04:34:25;97113.41;;;6.21;100.00
14295;BME280;7231;59.370;18.016;2023-03-14T04:36:53;97096.28;;;6.08;100.00
14295;BME280;7231;59.370;18.016;2023-03-14T04:39:21;97116.84;;;6.23;100.00
14295;BME280;7231;59.370;18.016;2023-03-14T04:41:50;97133.31;;;6.24;100.00
14295;BME280;7231;59.370;18.016;2023-03-14T04:44:18;97119.47;;;6.22;100.00
14295;BME280;7231;59.370;18.016;2023-03-14T04:46:46;97122.97;;;6.21;100.00
14295;BME280;7231;59.370;18.016;2023-03-14T04:49:14;97139.44;;;6.19;100.00
14295;BME280;7231;59.370;18.016;2023-03-14T04:51:42;97144.66;;;6.19;100.00
14295;BME280;7231;59.370;18.016;2023-03-14T04:54:10;97118.03;;;6.02;100.00
14295;BME280;7231;59.370;18.016;2023-03-14T04:56:38;97158.50;;;6.20;100.00
14295;BME280;7231;59.370;18.016;2023-03-14T04:59:08;97153.34;;;6.17;100.00
14295;BME280;7231;59.370;18.016;2023-03-14T05:01:36;97112.97;;;5.90;100.00
14295;BME280;7231;59.370;18.016;2023-03-14T05:04:04;97162.91;;;6.16;100.00
14295;BME280;7231;59.370;18.016;2023-03-14T05:06:32;97160.34;;;6.13;100.00
14295;BME280;7231;59.370;18.016;2023-03-14T05:09:00;97166.41;;;6.12;100.00
14295;BME280;7231;59.370;18.016;2023-03-14T05:11:29;97178.59;;;6.10;100.00
14295;BME280;7231;59.370;18.016;2023-03-14T05:13:57;97166.41;;;6.12;100.00
14295;BME280;7231;59.370;18.016;2023-03-14T05:16:26;97154.41;;;6.02;100.00
14295;BME280;7231;59.370;18.016;2023-03-14T05:18:54;97180.25;;;6.14;100.00
14295;BME280;7231;59.370;18.016;2023-03-14T05:21:22;97195.00;;;6.14;100.00
14295;BME280;7231;59.370;18.016;2023-03-14T05:23:50;97183.97;;;5.95;100.00
14295;BME280;7231;59.370;18.016;2023-03-14T05:26:18;97226.25;;;6.09;99.59
14295;BME280;7231;59.370;18.016;2023-03-14T05:28:46;97224.59;;;6.05;99.82
14295;BME280;7231;59.370;18.016;2023-03-14T05:31:14;97233.28;;;6.01;100.00
14295;BME280;7231;59.370;18.016;2023-03-14T05:33:43;97232.41;;;6.02;100.00
14295;BME280;7231;59.370;18.016;2023-03-14T05:36:12;97225.47;;;6.04;99.35
14295;BME280;7231;59.370;18.016;2023-03-14T05:38:40;97234.97;;;6.05;99.53
14295;BME280;7231;59.370;18.016;2023-03-14T05:41:08;97196.34;;;5.72;99.09
14295;BME280;7231;59.370;18.016;2023-03-14T05:43:36;97246.28;;;6.01;99.26
14295;BME280;7231;59.370;18.016;2023-03-14T05:46:04;97244.59;;;5.99;99.05
14295;BME280;7231;59.370;18.016;2023-03-14T05:48:32;97261.97;;;5.95;98.96
14295;BME280;7231;59.370;18.016;2023-03-14T05:51:01;97262.84;;;5.93;99.83
14295;BME280;7231;59.370;18.016;2023-03-14T05:53:29;97257.78;;;5.77;99.89
14295;BME280;7231;59.370;18.016;2023-03-14T05:55:57;97293.25;;;5.84;99.48
14295;BME280;7231;59.370;18.016;2023-03-14T05:58:25;97297.56;;;5.84;99.88
14295;BME280;7231;59.370;18.016;2023-03-14T06:00:53;97294.09;;;5.85;100.00
14295;BME280;7231;59.370;18.016;2023-03-14T06:03:21;97285.56;;;5.74;99.69
14295;BME280;7231;59.370;18.016;2023-03-14T06:05:50;97301.06;;;5.81;100.00
14295;BME280;7231;59.370;18.016;2023-03-14T06:08:19;97314.94;;;5.80;99.98
14295;BME280;7231;59.370;18.016;2023-03-14T06:10:47;97308.03;;;5.79;99.89
14295;BME280;7231;59.370;18.016;2023-03-14T06:13:15;97300.34;;;5.66;99.80
14295;BME280;7231;59.370;18.016;2023-03-14T06:15:43;97326.22;;;5.79;100.00
14295;BME280;7231;59.370;18.016;2023-03-14T06:18:11;97321.03;;;5.78;100.00
14295;BME280;7231;59.370;18.016;2023-03-14T06:20:40;97313.34;;;5.64;99.79
14295;BME280;7231;59.370;18.016;2023-03-14T06:23:09;97332.34;;;5.74;100.00
14295;BME280;7231;59.370;18.016;2023-03-14T06:25:38;97354.00;;;5.73;99.86
14295;BME280;7231;59.370;18.016;2023-03-14T06:28:06;97346.19;;;5.73;100.00
14295;BME280;7231;59.370;18.016;2023-03-14T06:30:34;97355.72;;;5.72;100.00
14295;BME280;7231;59.370;18.016;2023-03-14T06:33:02;97348.81;;;5.71;99.94
14295;BME280;7231;59.370;18.016;2023-03-14T06:35:30;97324.72;;;5.51;100.00
14295;BME280;7231;59.370;18.016;2023-03-14T06:37:58;97350.69;;;5.55;100.00
14295;BME280;7231;59.370;18.016;2023-03-14T06:40:26;97371.38;;;5.68;99.96
14295;BME280;7231;59.370;18.016;2023-03-14T06:42:55;97356.72;;;5.58;99.96
14295;BME280;7231;59.370;18.016;2023-03-14T06:45:23;97375.78;;;5.58;99.52
14295;BME280;7231;59.370;18.016;2023-03-14T06:47:51;97383.50;;;5.67;99.22
14295;BME280;7231;59.370;18.016;2023-03-14T06:50:19;97389.53;;;5.69;99.36
14295;BME280;7231;59.370;18.016;2023-03-14T06:52:48;97353.34;;;5.45;98.39
14295;BME280;7231;59.370;18.016;2023-03-14T06:55:16;97393.00;;;5.71;97.97
14295;BME280;7231;59.370;18.016;2023-03-14T06:57:48;97403.41;;;5.70;97.92
14295;BME280;7231;59.370;18.016;2023-03-14T07:00:18;97314.69;;;5.10;97.56
14295;BME280;7231;59.370;18.016;2023-03-14T07:02:49;97344.00;;;5.24;97.78
14295;BME280;7231;59.370;18.016;2023-03-14T07:05:17;97423.28;;;5.77;96.91
14295;BME280;7231;59.370;18.016;2023-03-14T07:07:45;97441.47;;;5.77;96.92
14295;BME280;7231;59.370;18.016;2023-03-14T07:10:14;97355.25;;;5.23;95.84
14295;BME280;7231;59.370;18.016;2023-03-14T07:12:43;97392.38;;;5.39;95.73
14295;BME280;7231;59.370;18.016;2023-03-14T07:15:11;97457.13;;;5.69;94.90
14295;BME280;7231;59.370;18.016;2023-03-14T07:17:46;97479.66;;;5.67;94.32
14295;BME280;7231;59.370;18.016;2023-03-14T07:20:16;97477.94;;;5.62;94.56
14295;BME280;7231;59.370;18.016;2023-03-14T07:22:47;97481.44;;;5.58;94.17
14295;BME280;7231;59.370;18.016;2023-03-14T07:25:15;97488.38;;;5.57;94.72
14295;BME280;7231;59.370;18.016;2023-03-14T07:27:44;97438.34;;;5.21;94.24
14295;BME280;7231;59.370;18.016;2023-03-14T07:30:13;97465.09;;;5.37;94.05
14295;BME280;7231;59.370;18.016;2023-03-14T07:32:41;97491.88;;;5.48;93.87
14295;BME280;7231;59.370;18.016;2023-03-14T07:35:10;97513.56;;;5.46;94.65
14295;BME280;7231;59.370;18.016;2023-03-14T07:37:38;97506.59;;;5.49;96.00
14295;BME280;7231;59.370;18.016;2023-03-14T07:40:07;97511.66;;;5.74;97.72
14295;BME280;7231;59.370;18.016;2023-03-14T07:42:37;97507.13;;;6.09;99.22
14295;BME280;7231;59.370;18.016;2023-03-14T07:45:06;97513.72;;;6.48;98.56
14295;BME280;7231;59.370;18.016;2023-03-14T07:47:34;97491.00;;;6.66;99.10
14295;BME280;7231;59.370;18.016;2023-03-14T07:50:02;97526.91;;;7.16;96.73
14295;BME280;7231;59.370;18.016;2023-03-14T07:52:32;97525.13;;;7.20;92.40
14295;BME280;7231;59.370;18.016;2023-03-14T07:55:00;97534.75;;;7.13;90.66
14295;BME280;7231;59.370;18.016;2023-03-14T07:57:28;97539.09;;;7.12;90.27
14295;BME280;7231;59.370;18.016;2023-03-14T07:59:56;97545.38;;;6.95;88.53
14295;BME280;7231;59.370;18.016;2023-03-14T08:02:24;97555.88;;;6.86;88.05
14295;BME280;7231;59.370;18.016;2023-03-14T08:04:52;97571.56;;;6.79;88.13
14295;BME280;7231;59.370;18.016;2023-03-14T08:07:20;97562.22;;;6.59;88.82
14295;BME280;7231;59.370;18.016;2023-03-14T08:09:49;97568.44;;;6.39;88.04
14295;BME280;7231;59.370;18.016;2023-03-14T08:12:17;97579.00;;;6.21;89.66
14295;BME280;7231;59.370;18.016;2023-03-14T08:14:45;97534.09;;;5.88;90.29
14295;BME280;7231;59.370;18.016;2023-03-14T08:17:13;97580.84;;;6.02;91.42
14295;BME280;7231;59.370;18.016;2023-03-14T08:19:41;97585.28;;;5.79;91.21
14295;BME280;7231;59.370;18.016;2023-03-14T08:22:09;97568.06;;;5.53;92.61
14295;BME280;7231;59.370;18.016;2023-03-14T08:24:37;97596.63;;;5.64;93.43
14295;BME280;7231;59.370;18.016;2023-03-14T08:27:06;97600.09;;;5.62;93.44
14295;BME280;7231;59.370;18.016;2023-03-14T08:29:36;97591.50;;;5.46;94.15
14295;BME280;7231;59.370;18.016;2023-03-14T08:32:04;97583.78;;;5.26;94.46
14295;BME280;7231;59.370;18.016;2023-03-14T08:34:33;97586.38;;;5.26;95.16
14295;BME280;7231;59.370;18.016;2023-03-14T08:37:01;97590.69;;;5.22;95.60
14295;BME280;7231;59.370;18.016;2023-03-14T08:39:36;97591.56;;;5.25;96.17
14295;BME280;7231;59.370;18.016;2023-03-14T08:42:04;97596.72;;;5.35;97.12
14295;BME280;7231;59.370;18.016;2023-03-14T08:44:33;97625.22;;;5.55;96.81
14295;BME280;7231;59.370;18.016;2023-03-14T08:47:01;97615.72;;;5.54;96.05
14295;BME280;7231;59.370;18.016;2023-03-14T08:49:30;97605.34;;;5.46;95.70
14295;BME280;7231;59.370;18.016;2023-03-14T08:51:58;97590.53;;;5.67;98.10
14295;BME280;7231;59.370;18.016;2023-03-14T08:54:26;97543.53;;;6.08;100.00
14295;BME280;7231;59.370;18.016;2023-03-14T08:56:54;97592.03;;;7.16;100.00
14295;BME280;7231;59.370;18.016;2023-03-14T08:59:23;97590.31;;;7.84;100.00
14295;BME280;7231;59.370;18.016;2023-03-14T09:01:52;97598.56;;;8.17;100.00
14295;BME280;7231;59.370;18.016;2023-03-14T09:04:21;97594.09;;;8.25;95.22
14295;BME280;7231;59.370;18.016;2023-03-14T09:06:49;97602.94;;;8.16;92.49
14295;BME280;7231;59.370;18.016;2023-03-14T09:09:17;97603.13;;;8.02;90.15
14295;BME280;7231;59.370;18.016;2023-03-14T09:11:45;97594.25;;;7.51;87.99
14295;BME280;7231;59.370;18.016;2023-03-14T09:14:13;97598.03;;;7.23;87.92
14295;BME280;7231;59.370;18.016;2023-03-14T09:16:41;97604.38;;;6.99;87.53
14295;BME280;7231;59.370;18.016;2023-03-14T09:19:11;97602.00;;;6.73;86.68
14295;BME280;7231;59.370;18.016;2023-03-14T09:21:38;97602.03;;;6.70;87.95
14295;BME280;7231;59.370;18.016;2023-03-14T09:24:06;97595.97;;;6.69;87.44
14295;BME280;7231;59.370;18.016;2023-03-14T09:26:35;97557.22;;;6.34;87.14
14295;BME280;7231;59.370;18.016;2023-03-14T09:29:03;97617.50;;;6.88;87.98
14295;BME280;7231;59.370;18.016;2023-03-14T09:31:30;97625.94;;;7.13;87.36
14295;BME280;7231;59.370;18.016;2023-03-14T09:33:59;97633.03;;;6.97;86.14
14295;BME280;7231;59.370;18.016;2023-03-14T09:36:28;97654.06;;;6.71;86.20
14295;BME280;7231;59.370;18.016;2023-03-14T09:38:56;97647.22;;;6.61;85.12
14295;BME280;7231;59.370;18.016;2023-03-14T09:41:27;97652.34;;;6.72;86.32
14295;BME280;7231;59.370;18.016;2023-03-14T09:44:02;97655.66;;;6.92;85.69
14295;BME280;7231;59.370;18.016;2023-03-14T09:46:32;97646.88;;;7.04;85.43
14295;BME280;7231;59.370;18.016;2023-03-14T09:49:09;97646.81;;;7.08;84.14
14295;BME280;7231;59.370;18.016;2023-03-14T09:51:40;97521.75;;;6.23;83.13
14295;BME280;7231;59.370;18.016;2023-03-14T09:54:21;97669.59;;;6.83;82.59
14295;BME280;7231;59.370;18.016;2023-03-14T09:56:51;97657.63;;;6.63;82.85
14295;BME280;7231;59.370;18.016;2023-03-14T09:59:19;97668.91;;;6.60;83.04
14295;BME280;7231;59.370;18.016;2023-03-14T10:01:48;97660.28;;;6.54;82.33
14295;BME280;7231;59.370;18.016;2023-03-14T10:04:21;97669.88;;;6.45;82.10
14295;BME280;7231;59.370;18.016;2023-03-14T10:06:51;97677.75;;;6.33;82.06
14295;BME280;7231;59.370;18.016;2023-03-14T10:09:21;97641.50;;;6.04;82.00
14295;BME280;7231;59.370;18.016;2023-03-14T10:11:54;97653.63;;;6.05;82.02
14295;BME280;7231;59.370;18.016;2023-03-14T10:14:31;97627.66;;;5.99;82.96
14295;BME280;7231;59.370;18.016;2023-03-14T10:17:05;97657.78;;;6.37;83.07
14295;BME280;7231;59.370;18.016;2023-03-14T10:19:34;97679.22;;;6.75;82.70
14295;BME280;7231;59.370;18.016;2023-03-14T10:22:05;97689.41;;;7.01;82.43
14295;BME280;7231;59.370;18.016;2023-03-14T10:24:35;97672.13;;;6.93;81.67
14295;BME280;7231;59.370;18.016;2023-03-14T10:27:05;97705.03;;;7.04;81.81
14295;BME280;7231;59.370;18.016;2023-03-14T10:29:34;97712.81;;;7.06;81.35
14295;BME280;7231;59.370;18.016;2023-03-14T10:32:04;97716.28;;;7.08;81.87
14295;BME280;7231;59.370;18.016;2023-03-14T10:34:36;97712.81;;;7.09;80.79
14295;BME280;7231;59.370;18.016;2023-03-14T10:37:14;97719.84;;;6.95;80.34
14295;BME280;7231;59.370;18.016;2023-03-14T10:39:46;97719.84;;;6.95;81.01
14295;BME280;7231;59.370;18.016;2023-03-14T10:42:19;97719.09;;;6.82;80.22
14295;BME280;7231;59.370;18.016;2023-03-14T10:44:53;97700.94;;;6.70;80.78
14295;BME280;7231;59.370;18.016;2023-03-14T10:47:24;97714.75;;;6.79;80.83
14295;BME280;7231;59.370;18.016;2023-03-14T10:49:53;97712.06;;;6.92;81.34
14295;BME280;7231;59.370;18.016;2023-03-14T10:52:24;97720.66;;;7.03;80.56
14295;BME280;7231;59.370;18.016;2023-03-14T10:55:10;97724.13;;;7.05;79.63
14295;BME280;7231;59.370;18.016;2023-03-14T10:57:39;97701.75;;;6.78;79.92
14295;BME280;7231;59.370;18.016;2023-03-14T11:00:14;97729.38;;;6.99;80.07
14295;BME280;7231;59.370;18.016;2023-03-14T11:02:51;97595.38;;;6.32;79.80
14295;BME280;7231;59.370;18.016;2023-03-14T11:05:28;97721.47;;;7.09;79.76
14295;BME280;7231;59.370;18.016;2023-03-14T11:08:02;97724.94;;;7.10;79.05
14295;BME280;7231;59.370;18.016;2023-03-14T11:10:34;97756.94;;;7.27;78.87
14295;BME280;7231;59.370;18.016;2023-03-14T11:13:14;97750.94;;;7.16;78.61
14295;BME280;7231;59.370;18.016;2023-03-14T11:15:51;97754.66;;;6.86;78.56
14295;BME280;7231;59.370;18.016;2023-03-14T11:18:46;97754.81;;;6.59;78.86
14295;BME280;7231;59.370;18.016;2023-03-14T11:21:20;97727.25;;;6.18;79.57
14295;BME280;7231;59.370;18.016;2023-03-14T11:24:02;97763.63;;;6.33;79.94
14295;BME280;7231;59.370;18.016;2023-03-14T11:26:40;97633.88;;;5.59;79.47
14295;BME280;7231;59.370;18.016;2023-03-14T11:29:19;97704.00;;;5.77;79.63
14295;BME280;7231;59.370;18.016;2023-03-14T11:31:48;97763.72;;;6.07;80.22
14295;BME280;7231;59.370;18.016;2023-03-14T11:34:20;97714.44;;;5.62;79.90
14295;BME280;7231;59.370;18.016;2023-03-14T11:36:51;97763.78;;;5.89;79.95
14295;BME280;7231;59.370;18.016;2023-03-14T11:39:24;97765.50;;;5.79;80.08
14295;BME280;7231;59.370;18.016;2023-03-14T11:41:57;97766.38;;;5.89;80.35
14295;BME280;7231;59.370;18.016;2023-03-14T11:44:34;97755.97;;;5.80;79.99
14295;BME280;7231;59.370;18.016;2023-03-14T11:47:07;97734.34;;;5.61;80.44
14295;BME280;7231;59.370;18.016;2023-03-14T11:49:42;97779.38;;;5.91;80.66
14295;BME280;7231;59.370;18.016;2023-03-14T11:52:15;97786.28;;;5.88;79.92
14295;BME280;7231;59.370;18.016;2023-03-14T11:54:49;97752.56;;;5.52;80.44
14295;BME280;7231;59.370;18.016;2023-03-14T11:57:22;97783.72;;;5.69;79.93
14295;BME280;7231;59.370;18.016;2023-03-14T11:59:56;97785.44;;;5.70;80.10
14295;BME280;7231;59.370;18.016;2023-03-14T12:02:33;97783.72;;;5.61;80.59
14295;BME280;7231;59.370;18.016;2023-03-14T12:05:25;97800.19;;;5.68;80.37
14295;BME280;7231;59.370;18.016;2023-03-14T12:11:01;97807.13;;;5.57;80.33
14295;BME280;7231;59.370;18.016;2023-03-14T12:13:33;97810.59;;;5.49;81.30
14295;BME280;7231;59.370;18.016;2023-03-14T12:16:05;97812.31;;;5.44;81.36
14295;BME280;7231;59.370;18.016;2023-03-14T12:18:36;97826.19;;;5.45;81.50
14295;BME280;7231;59.370;18.016;2023-03-14T12:21:07;97779.41;;;5.28;82.30
14295;BME280;7231;59.370;18.016;2023-03-14T12:23:40;97816.66;;;5.50;82.82
14295;BME280;7231;59.370;18.016;2023-03-14T12:26:16;97815.78;;;5.45;82.78
14295;BME280;7231;59.370;18.016;2023-03-14T12:28:50;97818.38;;;5.28;83.32
14295;BME280;7231;59.370;18.016;2023-03-14T12:31:38;97811.47;;;5.18;83.98
14295;BME280;7231;59.370;18.016;2023-03-14T12:34:30;97818.41;;;5.10;84.25
14295;BME280;7231;59.370;18.016;2023-03-14T12:37:17;97819.25;;;5.10;84.94
14295;BME280;7231;59.370;18.016;2023-03-14T12:42:45;97812.31;;;5.21;85.76
14295;BME280;7231;59.370;18.016;2023-03-14T12:45:25;97809.72;;;5.35;86.04
14295;BME280;7231;59.370;18.016;2023-03-14T12:48:07;97803.66;;;5.44;86.10
14295;BME280;7231;59.370;18.016;2023-03-14T12:50:41;97808.84;;;5.45;86.24
14295;BME280;7231;59.370;18.016;2023-03-14T12:56:19;97811.44;;;5.54;87.36
14295;BME280;7231;59.370;18.016;2023-03-14T12:58:58;97810.59;;;5.55;87.25
14295;BME280;7231;59.370;18.016;2023-03-14T13:01:28;97808.00;;;5.46;87.06
14295;BME280;7231;59.370;18.016;2023-03-14T13:03:57;97804.53;;;5.44;87.65
14295;BME280;7231;59.370;18.016;2023-03-14T13:06:49;97805.41;;;5.37;87.97
14295;BME280;7231;59.370;18.016;2023-03-14T13:09:50;97810.59;;;5.28;88.01
14295;BME280;7231;59.370;18.016;2023-03-14T13:12:23;97813.19;;;5.22;87.83
14295;BME280;7231;59.370;18.016;2023-03-14T13:14:58;97834.84;;;5.16;88.86
14295;BME280;7231;59.370;18.016;2023-03-14T13:17:29;97836.56;;;5.10;89.09
14295;BME280;7231;59.370;18.016;2023-03-14T13:20:10;97834.84;;;5.04;89.39
14295;BME280;7231;59.370;18.016;2023-03-14T13:22:46;97814.03;;;4.84;89.29
14295;BME280;7231;59.370;18.016;2023-03-14T13:25:15;97833.09;;;4.93;89.51
14295;BME280;7231;59.370;18.016;2023-03-14T13:27:45;97800.16;;;4.69;89.97
14295;BME280;7231;59.370;18.016;2023-03-14T13:30:17;97711.81;;;4.18;90.58
14295;BME280;7231;59.370;18.016;2023-03-14T13:32:46;97841.75;;;5.04;91.02